Архив погоды в Новой Ладоге

Метеограмма Новая Ладога
Вторник, 16 Октября
Время местн. Темп Ветер Видим Явления Облачность нижн/средн/верх Атм. давл. Влжн Точка росы ВНГО R Сост. почвы Tg s
Напр Скр Прв ур.ст ур.м изм
21:00 +11.5° С-З 3 - 50 км - облачно 765 766 +1.4 89% +9.7° 1 км 0 - - -
18:00 +13.5° З 3 - 50 км - незначительная облачность 763 764 +1.1 73% +8.7° более 2.5 км - - - -
15:00 +17.1° З,Ю-З 3 - 50 км - переменная облачность 762 763 -0.1 59% +9° - - - - -
12:00 +11° Ю,Ю-З 4 - 50 км - облачно с прояснениями 762 763 -0.6 74% +6.6° более 2.5 км - - - -
09:00 +6.5° Ю 3 - 50 км - преимущественно облачно 763 764 -1.1 86% +4.4° - 0 - - -
06:00 +7° Ю 3 - 50 км - переменная облачность 764 765 -0.5 88% +5.2° более 2.5 км - - - -
03:00 +8.4° Ю 3 - 50 км - переменная облачность 765 765 -0.5 88% +6.5° более 2.5 км - - - -
00:00 +11.6° Ю-З 3 - 50 км - ясно 765 766 -0.1 79% +8.1° более 2.5 км - - - -
Понедельник, 15 Октября
Время местн. Темп Ветер Видим Явления Облачность нижн/средн/верх Атм. давл. Влжн Точка росы ВНГО R Сост. почвы Tg s
Напр Скр Прв ур.ст ур.м изм
21:00 +11.4° Ю,Ю-З 2 - 50 км - переменная облачность 765 766 +0.2 79% +7.9° более 2.5 км 0 - - -
18:00 +15° Ю,Ю-З 2 - 50 км - незначительная облачность 765 766 -0.2 66% +8.7° более 2.5 км - - - -
15:00 +18° Ю,Ю-З 4 - 50 км - ясно 765 766 -1 56% +9° более 2.5 км - - - -
12:00 +12.8° Ю,Ю-З 3 - 50 км - ясно 766 767 -0.8 83% +9.9° более 2.5 км - - - -
09:00 +8.2° Ю 3 - 10 км - незначительная облачность 767 768 -0.2 96% +7.6° более 2.5 км 0 - - -
06:00 +7.8° Ю 3 - 10 км дымка переменная облачность 767 768 -0.4 99% +7.6° более 2.5 км - - - -
03:00 +8.8° Ю 1 - 10 км - ясно 767 768 +0.1 99% +8.6° более 2.5 км - - - -
00:00 +10.9° Ю 2 - 20 км - ясно 767 768 +0.2 95% +10.1° более 2.5 км - - - -
Воскресенье, 14 Октября
Время местн. Темп Ветер Видим Явления Облачность нижн/средн/верх Атм. давл. Влжн Точка росы ВНГО R Сост. почвы Tg s
Напр Скр Прв ур.ст ур.м изм
21:00 +13.2° Ю-З 2 - 50 км - ясно 767 768 +0.1 87% +11.1° более 2.5 км 0 - - -
18:00 +16.2° З,Ю-З 2 - 50 км - переменная облачность 767 768 -0.1 71% +11° более 2.5 км - - - -
15:00 +19.4° З 4 - 50 км - облачно с прояснениями 767 768 -0.2 61% +11.8° более 2.5 км - - - -
12:00 +16.9° З,Ю-З 2 - 50 км - преимущественно облачно 767 768 0 73% +12° более 2.5 км - - - -
09:00 +12.4° Ю-З 2 - 20 км - преимущественно облачно 767 768 -0.2 92% +11.1° более 2.5 км 0 Влажная (без луж) - -
06:00 +11.7° Ю-З 2 - 20 км - облачно с прояснениями 768 768 -0.2 96% +11.1° более 2.5 км - - - -
03:00 +11.6° З 3 - 20 км - облачно с прояснениями 768 768 -0.1 96% +11° более 2.5 км - - - -
00:00 +11.8° З 2 - 20 км - переменная облачность 768 769 +0.1 94% +10.8° более 2.5 км - - - -
Суббота, 13 Октября
Время местн. Темп Ветер Видим Явления Облачность нижн/средн/верх Атм. давл. Влжн Точка росы ВНГО R Сост. почвы Tg s
Напр Скр Прв ур.ст ур.м изм
21:00 +12.5° З 2 - 50 км - облачно 768 768 0 93% +11.4° - 0 - - -
18:00 +12.7° Ю,Ю-З 2 - 50 км - облачно 768 768 -0.6 89% +11° - - - - -